Terminal Aerodrome Forecast
Issued by NWS

Home | Current Version | Previous Version | Graphics & Text | Print | Product List | Glossary Off
Versions: 1 2 3 4 5 6 7 8 9 10 11 12 13 14 15 16 17

000
FTUS43 KFGF 292002 AAB
TAFBJI
TAF AMD
KBJI 292002Z 2920/3018 34012G17KT P6SM OVC020
     FM292200 34013G18KT P6SM SCT018
     FM300200 33009KT P6SM FEW025=

USA.gov is the U.S. government's official web portal to all federal, state and local government web resources and services.